sensor_id;sensor_type;location;lat;lon;timestamp;pressure;altitude;pressure_sealevel;temperature;humidity
26823;BME280;14852;51.910;8.878;2022-12-07T00:01:39;99624.00;;;6.33;66.50
26823;BME280;14852;51.910;8.878;2022-12-07T00:04:09;99637.75;;;6.34;66.69
26823;BME280;14852;51.910;8.878;2022-12-07T00:06:42;99624.75;;;6.35;66.76
26823;BME280;14852;51.910;8.878;2022-12-07T00:09:13;99622.19;;;6.35;66.81
26823;BME280;14852;51.910;8.878;2022-12-07T00:11:39;99621.25;;;6.38;66.44
26823;BME280;14852;51.910;8.878;2022-12-07T00:14:08;99627.25;;;6.38;66.50
26823;BME280;14852;51.910;8.878;2022-12-07T00:16:35;99622.97;;;6.37;66.74
26823;BME280;14852;51.910;8.878;2022-12-07T00:19:03;99622.91;;;6.39;66.76
26823;BME280;14852;51.910;8.878;2022-12-07T00:21:32;99618.50;;;6.42;66.78
26823;BME280;14852;51.910;8.878;2022-12-07T00:23:59;99617.59;;;6.43;66.87
26823;BME280;14852;51.910;8.878;2022-12-07T00:26:37;99617.47;;;6.46;66.51
26823;BME280;14852;51.910;8.878;2022-12-07T00:29:18;99614.06;;;6.46;66.88
26823;BME280;14852;51.910;8.878;2022-12-07T00:31:44;99609.81;;;6.45;66.95
26823;BME280;14852;51.910;8.878;2022-12-07T00:34:17;99610.56;;;6.47;66.52
26823;BME280;14852;51.910;8.878;2022-12-07T00:36:43;99601.22;;;6.44;66.90
26823;BME280;14852;51.910;8.878;2022-12-07T00:39:09;99600.38;;;6.44;66.71
26823;BME280;14852;51.910;8.878;2022-12-07T00:41:36;99604.69;;;6.43;66.92
26823;BME280;14852;51.910;8.878;2022-12-07T00:44:02;99598.69;;;6.43;66.94
26823;BME280;14852;51.910;8.878;2022-12-07T00:46:29;99600.38;;;6.44;66.88
26823;BME280;14852;51.910;8.878;2022-12-07T00:48:54;99601.22;;;6.44;66.98
26823;BME280;14852;51.910;8.878;2022-12-07T00:51:23;99589.06;;;6.46;67.00
26823;BME280;14852;51.910;8.878;2022-12-07T00:53:50;99590.69;;;6.49;67.02
26823;BME280;14852;51.910;8.878;2022-12-07T00:56:20;99589.75;;;6.51;67.28
26823;BME280;14852;51.910;8.878;2022-12-07T00:58:54;99588.81;;;6.54;66.88
26823;BME280;14852;51.910;8.878;2022-12-07T01:01:22;99575.84;;;6.56;67.09
26823;BME280;14852;51.910;8.878;2022-12-07T01:03:48;99583.38;;;6.60;67.03
26823;BME280;14852;51.910;8.878;2022-12-07T01:06:17;99583.31;;;6.62;66.90
26823;BME280;14852;51.910;8.878;2022-12-07T01:08:43;99580.75;;;6.62;67.08
26823;BME280;14852;51.910;8.878;2022-12-07T01:11:14;99585.81;;;6.65;66.89
26823;BME280;14852;51.910;8.878;2022-12-07T01:13:40;99589.22;;;6.65;67.28
26823;BME280;14852;51.910;8.878;2022-12-07T01:16:07;99590.84;;;6.68;66.95
26823;BME280;14852;51.910;8.878;2022-12-07T01:18:35;99586.53;;;6.68;67.05
26823;BME280;14852;51.910;8.878;2022-12-07T01:21:05;99589.88;;;6.70;67.38
26823;BME280;14852;51.910;8.878;2022-12-07T01:23:33;99590.59;;;6.74;67.40
26823;BME280;14852;51.910;8.878;2022-12-07T01:26:03;99589.59;;;6.78;67.35
26823;BME280;14852;51.910;8.878;2022-12-07T01:28:29;99587.78;;;6.80;67.25
26823;BME280;14852;51.910;8.878;2022-12-07T01:31:02;99602.25;;;6.84;66.94
26823;BME280;14852;51.910;8.878;2022-12-07T01:33:31;99592.69;;;6.86;67.11
26823;BME280;14852;51.910;8.878;2022-12-07T01:38:40;99590.84;;;6.89;67.11
26823;BME280;14852;51.910;8.878;2022-12-07T01:41:07;99589.03;;;6.92;67.01
26823;BME280;14852;51.910;8.878;2022-12-07T01:43:33;99598.38;;;6.94;67.21
26823;BME280;14852;51.910;8.878;2022-12-07T01:46:01;99600.00;;;6.97;67.08
26823;BME280;14852;51.910;8.878;2022-12-07T01:48:41;99585.25;;;7.00;66.91
26823;BME280;14852;51.910;8.878;2022-12-07T01:51:12;99593.84;;;7.01;66.89
26823;BME280;14852;51.910;8.878;2022-12-07T01:53:43;99586.13;;;6.99;67.25
26823;BME280;14852;51.910;8.878;2022-12-07T01:56:15;99587.88;;;6.99;67.18
26823;BME280;14852;51.910;8.878;2022-12-07T01:58:44;99587.81;;;7.00;67.22
26823;BME280;14852;51.910;8.878;2022-12-07T02:01:10;99587.78;;;7.02;67.42
26823;BME280;14852;51.910;8.878;2022-12-07T02:03:41;99588.56;;;7.04;67.28
26823;BME280;14852;51.910;8.878;2022-12-07T02:06:08;99591.13;;;7.04;67.29
26823;BME280;14852;51.910;8.878;2022-12-07T02:08:36;99585.97;;;7.04;67.04
26823;BME280;14852;51.910;8.878;2022-12-07T02:11:04;99578.22;;;7.04;67.14
26823;BME280;14852;51.910;8.878;2022-12-07T02:13:33;99575.75;;;7.01;67.33
26823;BME280;14852;51.910;8.878;2022-12-07T02:16:41;99580.84;;;7.02;67.36
26823;BME280;14852;51.910;8.878;2022-12-07T02:25:30;99574.19;;;6.97;67.21
26823;BME280;14852;51.910;8.878;2022-12-07T02:28:12;99568.19;;;6.96;67.55
26823;BME280;14852;51.910;8.878;2022-12-07T02:30:47;99569.97;;;6.94;67.32
26823;BME280;14852;51.910;8.878;2022-12-07T02:33:31;99571.66;;;6.95;67.25
26823;BME280;14852;51.910;8.878;2022-12-07T02:36:11;99566.56;;;6.94;67.57
26823;BME280;14852;51.910;8.878;2022-12-07T02:38:51;99569.28;;;6.90;67.48
26823;BME280;14852;51.910;8.878;2022-12-07T02:41:34;99568.66;;;6.84;67.29
26823;BME280;14852;51.910;8.878;2022-12-07T02:44:06;99562.88;;;6.79;67.50
26823;BME280;14852;51.910;8.878;2022-12-07T02:46:43;99557.69;;;6.79;67.74
26823;BME280;14852;51.910;8.878;2022-12-07T02:49:11;99556.97;;;6.75;67.56
26823;BME280;14852;51.910;8.878;2022-12-07T02:51:42;99556.25;;;6.72;67.59
26823;BME280;14852;51.910;8.878;2022-12-07T02:54:14;99555.59;;;6.67;67.89
26823;BME280;14852;51.910;8.878;2022-12-07T02:56:50;99554.03;;;6.63;67.82
26823;BME280;14852;51.910;8.878;2022-12-07T02:59:56;99552.34;;;6.62;68.03
26823;BME280;14852;51.910;8.878;2022-12-07T03:05:53;99551.56;;;6.60;67.83
26823;BME280;14852;51.910;8.878;2022-12-07T03:11:48;99543.28;;;6.51;67.66
26823;BME280;14852;51.910;8.878;2022-12-07T03:17:20;99548.44;;;6.51;67.72
26823;BME280;14852;51.910;8.878;2022-12-07T03:19:49;99548.50;;;6.50;67.65
26823;BME280;14852;51.910;8.878;2022-12-07T03:22:17;99550.25;;;6.49;67.75
26823;BME280;14852;51.910;8.878;2022-12-07T03:24:55;99536.50;;;6.49;67.86
26823;BME280;14852;51.910;8.878;2022-12-07T03:27:40;99537.41;;;6.48;67.86
26823;BME280;14852;51.910;8.878;2022-12-07T03:30:15;99542.69;;;6.45;67.96
26823;BME280;14852;51.910;8.878;2022-12-07T03:33:22;99549.56;;;6.46;67.78
26823;BME280;14852;51.910;8.878;2022-12-07T03:36:13;99547.13;;;6.41;67.99
26823;BME280;14852;51.910;8.878;2022-12-07T03:38:49;99534.41;;;6.37;67.88
26823;BME280;14852;51.910;8.878;2022-12-07T03:41:31;99536.28;;;6.33;68.15
26823;BME280;14852;51.910;8.878;2022-12-07T03:43:58;99544.97;;;6.31;68.19
26823;BME280;14852;51.910;8.878;2022-12-07T03:46:50;99540.72;;;6.30;68.02
26823;BME280;14852;51.910;8.878;2022-12-07T03:49:27;99545.91;;;6.28;68.23
26823;BME280;14852;51.910;8.878;2022-12-07T03:52:20;99549.34;;;6.29;68.31
26823;BME280;14852;51.910;8.878;2022-12-07T03:54:56;99539.97;;;6.26;68.22
26823;BME280;14852;51.910;8.878;2022-12-07T03:57:25;99551.19;;;6.25;67.92
26823;BME280;14852;51.910;8.878;2022-12-07T03:59:54;99548.66;;;6.24;68.17
26823;BME280;14852;51.910;8.878;2022-12-07T04:02:22;99542.75;;;6.22;68.05
26823;BME280;14852;51.910;8.878;2022-12-07T04:04:49;99544.47;;;6.21;68.06
26823;BME280;14852;51.910;8.878;2022-12-07T04:07:15;99549.66;;;6.21;68.05
26823;BME280;14852;51.910;8.878;2022-12-07T04:09:41;99547.06;;;6.21;68.13
26823;BME280;14852;51.910;8.878;2022-12-07T04:12:07;99539.31;;;6.21;68.19
26823;BME280;14852;51.910;8.878;2022-12-07T04:14:33;99541.91;;;6.21;68.02
26823;BME280;14852;51.910;8.878;2022-12-07T04:16:59;99538.44;;;6.22;68.10
26823;BME280;14852;51.910;8.878;2022-12-07T04:19:33;99544.28;;;6.26;67.89
26823;BME280;14852;51.910;8.878;2022-12-07T04:22:01;99538.22;;;6.27;68.06
26823;BME280;14852;51.910;8.878;2022-12-07T04:24:28;99544.22;;;6.27;67.58
26823;BME280;14852;51.910;8.878;2022-12-07T04:26:54;99540.09;;;6.23;67.68
26823;BME280;14852;51.910;8.878;2022-12-07T04:29:20;99541.91;;;6.21;67.77
26823;BME280;14852;51.910;8.878;2022-12-07T04:31:47;99542.81;;;6.20;67.85
26823;BME280;14852;51.910;8.878;2022-12-07T04:34:14;99536.81;;;6.20;68.10
26823;BME280;14852;51.910;8.878;2022-12-07T04:36:41;99543.66;;;6.21;67.90
26823;BME280;14852;51.910;8.878;2022-12-07T04:39:13;99540.91;;;6.24;67.94
26823;BME280;14852;51.910;8.878;2022-12-07T04:41:42;99535.72;;;6.25;67.61
26823;BME280;14852;51.910;8.878;2022-12-07T04:44:08;99537.28;;;6.29;67.56
26823;BME280;14852;51.910;8.878;2022-12-07T04:46:34;99542.38;;;6.31;67.54
26823;BME280;14852;51.910;8.878;2022-12-07T04:49:00;99538.13;;;6.30;67.63
26823;BME280;14852;51.910;8.878;2022-12-07T04:51:28;99547.50;;;6.32;67.79
26823;BME280;14852;51.910;8.878;2022-12-07T04:53:55;99542.28;;;6.34;67.79
26823;BME280;14852;51.910;8.878;2022-12-07T04:56:22;99549.88;;;6.37;67.59
26823;BME280;14852;51.910;8.878;2022-12-07T04:58:48;99542.88;;;6.40;67.50
26823;BME280;14852;51.910;8.878;2022-12-07T05:01:16;99541.03;;;6.44;67.40
26823;BME280;14852;51.910;8.878;2022-12-07T05:03:43;99533.22;;;6.45;67.50
26823;BME280;14852;51.910;8.878;2022-12-07T05:06:10;99543.47;;;6.47;67.35
26823;BME280;14852;51.910;8.878;2022-12-07T05:08:36;99534.75;;;6.49;67.60
26823;BME280;14852;51.910;8.878;2022-12-07T05:11:03;99536.44;;;6.50;67.26
26823;BME280;14852;51.910;8.878;2022-12-07T05:13:29;99534.75;;;6.49;67.39
26823;BME280;14852;51.910;8.878;2022-12-07T05:15:55;99538.19;;;6.50;67.34
26823;BME280;14852;51.910;8.878;2022-12-07T05:18:21;99525.34;;;6.48;67.47
26823;BME280;14852;51.910;8.878;2022-12-07T05:20:47;99528.75;;;6.49;67.54
26823;BME280;14852;51.910;8.878;2022-12-07T05:23:12;99540.75;;;6.50;67.30
26823;BME280;14852;51.910;8.878;2022-12-07T05:25:39;99533.03;;;6.50;67.49
26823;BME280;14852;51.910;8.878;2022-12-07T05:28:05;99536.44;;;6.50;67.59
26823;BME280;14852;51.910;8.878;2022-12-07T05:30:32;99538.13;;;6.51;67.39
26823;BME280;14852;51.910;8.878;2022-12-07T05:32:58;99537.22;;;6.52;67.41
26823;BME280;14852;51.910;8.878;2022-12-07T05:35:24;99528.66;;;6.52;67.48
26823;BME280;14852;51.910;8.878;2022-12-07T05:37:49;99528.66;;;6.52;67.39
26823;BME280;14852;51.910;8.878;2022-12-07T05:40:16;99529.50;;;6.52;67.31
26823;BME280;14852;51.910;8.878;2022-12-07T05:42:42;99531.22;;;6.52;67.24
26823;BME280;14852;51.910;8.878;2022-12-07T05:45:09;99530.38;;;6.51;67.45
26823;BME280;14852;51.910;8.878;2022-12-07T05:47:36;99527.84;;;6.50;67.59
26823;BME280;14852;51.910;8.878;2022-12-07T05:50:03;99518.44;;;6.49;67.56
26823;BME280;14852;51.910;8.878;2022-12-07T05:52:30;99527.03;;;6.49;67.38
26823;BME280;14852;51.910;8.878;2022-12-07T05:54:55;99527.91;;;6.48;67.43
26823;BME280;14852;51.910;8.878;2022-12-07T05:57:21;99515.00;;;6.48;67.20
26823;BME280;14852;51.910;8.878;2022-12-07T05:59:47;99523.59;;;6.49;67.18
26823;BME280;14852;51.910;8.878;2022-12-07T06:02:15;99523.53;;;6.50;67.36
26823;BME280;14852;51.910;8.878;2022-12-07T06:04:45;99524.38;;;6.51;67.39
26823;BME280;14852;51.910;8.878;2022-12-07T06:07:13;99527.81;;;6.51;67.35
26823;BME280;14852;51.910;8.878;2022-12-07T06:09:39;99518.31;;;6.52;67.46
26823;BME280;14852;51.910;8.878;2022-12-07T06:12:06;99531.22;;;6.52;67.53
26823;BME280;14852;51.910;8.878;2022-12-07T06:14:53;99527.75;;;6.53;67.42
26823;BME280;14852;51.910;8.878;2022-12-07T06:17:18;99530.34;;;6.53;67.04
26823;BME280;14852;51.910;8.878;2022-12-07T06:19:44;99526.91;;;6.52;67.17
26823;BME280;14852;51.910;8.878;2022-12-07T06:22:11;99529.50;;;6.52;67.11
26823;BME280;14852;51.910;8.878;2022-12-07T06:24:37;99535.50;;;6.53;67.42
26823;BME280;14852;51.910;8.878;2022-12-07T06:27:04;99535.50;;;6.53;67.34
26823;BME280;14852;51.910;8.878;2022-12-07T06:29:30;99534.53;;;6.56;67.15
26823;BME280;14852;51.910;8.878;2022-12-07T06:31:56;99532.84;;;6.54;67.08
26823;BME280;14852;51.910;8.878;2022-12-07T06:34:24;99530.44;;;6.50;67.09
26823;BME280;14852;51.910;8.878;2022-12-07T06:36:50;99532.28;;;6.46;67.34
26823;BME280;14852;51.910;8.878;2022-12-07T06:39:23;99524.69;;;6.43;67.37
26823;BME280;14852;51.910;8.878;2022-12-07T06:41:50;99535.97;;;6.41;67.36
26823;BME280;14852;51.910;8.878;2022-12-07T06:44:18;99536.06;;;6.38;67.40
26823;BME280;14852;51.910;8.878;2022-12-07T06:46:44;99532.84;;;6.33;67.19
26823;BME280;14852;51.910;8.878;2022-12-07T06:49:10;99531.44;;;6.24;67.31
26823;BME280;14852;51.910;8.878;2022-12-07T06:51:36;99535.16;;;6.17;67.29
26823;BME280;14852;51.910;8.878;2022-12-07T06:54:10;99536.25;;;6.11;67.75
26823;BME280;14852;51.910;8.878;2022-12-07T06:56:37;99540.69;;;6.08;67.50
26823;BME280;14852;51.910;8.878;2022-12-07T06:59:04;99536.38;;;6.08;67.66
26823;BME280;14852;51.910;8.878;2022-12-07T07:01:33;99542.31;;;6.10;67.33
26823;BME280;14852;51.910;8.878;2022-12-07T07:03:59;99536.91;;;6.16;67.58
26823;BME280;14852;51.910;8.878;2022-12-07T07:06:25;99543.69;;;6.19;67.07
26823;BME280;14852;51.910;8.878;2022-12-07T07:08:51;99545.38;;;6.20;67.41
26823;BME280;14852;51.910;8.878;2022-12-07T07:11:17;99551.31;;;6.22;67.07
26823;BME280;14852;51.910;8.878;2022-12-07T07:13:44;99549.59;;;6.23;67.13
26823;BME280;14852;51.910;8.878;2022-12-07T07:16:10;99550.41;;;6.23;66.95
26823;BME280;14852;51.910;8.878;2022-12-07T07:18:36;99555.50;;;6.25;67.06
26823;BME280;14852;51.910;8.878;2022-12-07T07:21:03;99559.81;;;6.24;67.23
26823;BME280;14852;51.910;8.878;2022-12-07T07:23:29;99557.19;;;6.26;67.14
26823;BME280;14852;51.910;8.878;2022-12-07T07:25:55;99560.63;;;6.26;67.18
26823;BME280;14852;51.910;8.878;2022-12-07T07:28:21;99562.34;;;6.26;67.00
26823;BME280;14852;51.910;8.878;2022-12-07T07:30:47;99560.63;;;6.26;67.01
26823;BME280;14852;51.910;8.878;2022-12-07T07:33:14;99558.94;;;6.25;67.02
26823;BME280;14852;51.910;8.878;2022-12-07T07:35:40;99561.41;;;6.28;67.08
26823;BME280;14852;51.910;8.878;2022-12-07T07:38:06;99574.31;;;6.28;67.19
26823;BME280;14852;51.910;8.878;2022-12-07T07:40:32;99563.03;;;6.31;66.89
26823;BME280;14852;51.910;8.878;2022-12-07T07:42:58;99567.28;;;6.32;67.03
26823;BME280;14852;51.910;8.878;2022-12-07T07:45:26;99562.13;;;6.32;67.00
26823;BME280;14852;51.910;8.878;2022-12-07T07:47:53;99558.75;;;6.30;67.23
26823;BME280;14852;51.910;8.878;2022-12-07T07:50:19;99562.97;;;6.32;66.91
26823;BME280;14852;51.910;8.878;2022-12-07T07:52:45;99562.13;;;6.32;66.75
26823;BME280;14852;51.910;8.878;2022-12-07T07:55:11;99567.25;;;6.33;66.91
26823;BME280;14852;51.910;8.878;2022-12-07T07:57:39;99572.47;;;6.32;67.05
26823;BME280;14852;51.910;8.878;2022-12-07T08:00:11;99569.81;;;6.33;66.70
26823;BME280;14852;51.910;8.878;2022-12-07T08:02:41;99562.13;;;6.32;66.90
26823;BME280;14852;51.910;8.878;2022-12-07T08:05:09;99572.41;;;6.33;66.86
26823;BME280;14852;51.910;8.878;2022-12-07T08:07:35;99569.88;;;6.32;66.95
26823;BME280;14852;51.910;8.878;2022-12-07T08:10:02;99576.72;;;6.33;66.89
26823;BME280;14852;51.910;8.878;2022-12-07T08:12:28;99576.59;;;6.36;66.61
26823;BME280;14852;51.910;8.878;2022-12-07T08:14:54;99569.81;;;6.33;66.91
26823;BME280;14852;51.910;8.878;2022-12-07T08:17:19;99570.81;;;6.29;67.05
26823;BME280;14852;51.910;8.878;2022-12-07T08:19:45;99575.09;;;6.30;66.63
26823;BME280;14852;51.910;8.878;2022-12-07T08:22:11;99571.56;;;6.33;66.85
26823;BME280;14852;51.910;8.878;2022-12-07T08:24:37;99565.31;;;6.38;66.83
26823;BME280;14852;51.910;8.878;2022-12-07T08:27:03;99570.31;;;6.43;66.43
26823;BME280;14852;51.910;8.878;2022-12-07T08:29:29;99575.47;;;6.43;66.42
26823;BME280;14852;51.910;8.878;2022-12-07T08:31:55;99577.00;;;6.47;66.63
26823;BME280;14852;51.910;8.878;2022-12-07T08:34:21;99583.38;;;6.60;66.46
26823;BME280;14852;51.910;8.878;2022-12-07T08:36:46;99593.44;;;6.68;66.14
26823;BME280;14852;51.910;8.878;2022-12-07T08:39:12;99590.91;;;6.66;65.85
26823;BME280;14852;51.910;8.878;2022-12-07T08:41:38;99587.66;;;6.61;66.17
26823;BME280;14852;51.910;8.878;2022-12-07T08:44:04;99584.38;;;6.58;66.05
26823;BME280;14852;51.910;8.878;2022-12-07T08:46:49;99582.53;;;6.60;66.55
26823;BME280;14852;51.910;8.878;2022-12-07T08:49:24;99583.28;;;6.63;66.33
26823;BME280;14852;51.910;8.878;2022-12-07T08:51:52;99573.53;;;6.70;66.04
26823;BME280;14852;51.910;8.878;2022-12-07T08:54:20;99577.75;;;6.72;66.08
26823;BME280;14852;51.910;8.878;2022-12-07T08:56:47;99578.53;;;6.74;66.14
26823;BME280;14852;51.910;8.878;2022-12-07T08:59:16;99584.66;;;6.72;66.31
26823;BME280;14852;51.910;8.878;2022-12-07T09:01:43;99577.03;;;6.69;66.05
26823;BME280;14852;51.910;8.878;2022-12-07T09:04:08;99579.38;;;6.75;66.33
26823;BME280;14852;51.910;8.878;2022-12-07T09:06:34;99578.22;;;6.82;66.01
26823;BME280;14852;51.910;8.878;2022-12-07T09:09:01;99583.25;;;6.85;65.95
26823;BME280;14852;51.910;8.878;2022-12-07T09:11:27;99590.16;;;6.84;65.85
26823;BME280;14852;51.910;8.878;2022-12-07T09:13:53;99575.88;;;6.76;65.96
26823;BME280;14852;51.910;8.878;2022-12-07T09:16:19;99571.88;;;6.69;66.12
26823;BME280;14852;51.910;8.878;2022-12-07T09:18:45;99571.25;;;6.62;66.45
26823;BME280;14852;51.910;8.878;2022-12-07T09:21:11;99566.31;;;6.58;66.36
26823;BME280;14852;51.910;8.878;2022-12-07T09:23:36;99577.38;;;6.60;66.64
26823;BME280;14852;51.910;8.878;2022-12-07T09:26:04;99576.00;;;6.73;66.36
26823;BME280;14852;51.910;8.878;2022-12-07T09:28:31;99581.56;;;6.84;65.85
26823;BME280;14852;51.910;8.878;2022-12-07T09:30:57;99581.22;;;6.93;65.96
26823;BME280;14852;51.910;8.878;2022-12-07T09:33:23;99582.34;;;7.08;65.90
26823;BME280;14852;51.910;8.878;2022-12-07T09:35:50;99584.31;;;7.23;65.45
26823;BME280;14852;51.910;8.878;2022-12-07T09:38:18;99587.59;;;7.26;65.25
26823;BME280;14852;51.910;8.878;2022-12-07T09:40:44;99580.47;;;7.32;65.21
26823;BME280;14852;51.910;8.878;2022-12-07T09:43:19;99582.75;;;7.39;65.24
26823;BME280;14852;51.910;8.878;2022-12-07T09:45:48;99591.28;;;7.41;65.03
26823;BME280;14852;51.910;8.878;2022-12-07T09:48:39;99585.81;;;7.49;65.28
26823;BME280;14852;51.910;8.878;2022-12-07T09:51:17;99589.13;;;7.51;64.95
26823;BME280;14852;51.910;8.878;2022-12-07T09:53:45;99587.47;;;7.50;65.18
26823;BME280;14852;51.910;8.878;2022-12-07T09:56:14;99578.88;;;7.49;65.09
26823;BME280;14852;51.910;8.878;2022-12-07T09:58:40;99579.38;;;7.57;65.07
26823;BME280;14852;51.910;8.878;2022-12-07T10:03:42;99584.81;;;7.72;64.76
26823;BME280;14852;51.910;8.878;2022-12-07T10:06:12;99584.22;;;7.65;65.04
26823;BME280;14852;51.910;8.878;2022-12-07T10:08:38;99585.41;;;7.58;65.27
26823;BME280;14852;51.910;8.878;2022-12-07T10:11:04;99578.78;;;7.51;65.54
26823;BME280;14852;51.910;8.878;2022-12-07T10:13:38;99579.84;;;7.47;65.24
26823;BME280;14852;51.910;8.878;2022-12-07T10:16:05;99580.94;;;7.41;65.68
26823;BME280;14852;51.910;8.878;2022-12-07T10:18:38;99582.81;;;7.38;65.61
26823;BME280;14852;51.910;8.878;2022-12-07T10:21:16;99580.25;;;7.38;65.65
26823;BME280;14852;51.910;8.878;2022-12-07T10:26:51;99577.84;;;7.33;65.49
26823;BME280;14852;51.910;8.878;2022-12-07T10:29:24;99572.72;;;7.32;65.60
26823;BME280;14852;51.910;8.878;2022-12-07T10:32:28;99565.09;;;7.28;65.68
26823;BME280;14852;51.910;8.878;2022-12-07T10:34:57;99561.94;;;7.22;65.39
26823;BME280;14852;51.910;8.878;2022-12-07T10:37:41;99566.22;;;7.23;65.65
26823;BME280;14852;51.910;8.878;2022-12-07T10:40:34;99558.25;;;7.27;65.57
26823;BME280;14852;51.910;8.878;2022-12-07T10:51:40;99545.31;;;7.27;65.54
26823;BME280;14852;51.910;8.878;2022-12-07T10:54:19;99552.06;;;7.32;65.65
26823;BME280;14852;51.910;8.878;2022-12-07T10:57:04;99558.56;;;7.40;65.51
26823;BME280;14852;51.910;8.878;2022-12-07T11:06:14;99548.56;;;7.53;65.42
26823;BME280;14852;51.910;8.878;2022-12-07T11:15:41;99536.34;;;7.56;64.99
26823;BME280;14852;51.910;8.878;2022-12-07T11:18:34;99538.75;;;7.61;65.33
26823;BME280;14852;51.910;8.878;2022-12-07T11:24:56;99523.78;;;7.68;64.98
26823;BME280;14852;51.910;8.878;2022-12-07T11:30:40;99521.19;;;7.68;65.09
26823;BME280;14852;51.910;8.878;2022-12-07T11:33:29;99527.91;;;7.72;65.21
26823;BME280;14852;51.910;8.878;2022-12-07T11:36:07;99515.00;;;7.72;65.21
26823;BME280;14852;51.910;8.878;2022-12-07T11:38:53;99517.28;;;7.78;64.78
26823;BME280;14852;51.910;8.878;2022-12-07T11:41:27;99510.31;;;7.80;64.94
26823;BME280;14852;51.910;8.878;2022-12-07T11:47:20;99497.97;;;7.85;65.00
26823;BME280;14852;51.910;8.878;2022-12-07T11:56:04;99481.56;;;7.86;64.95
26823;BME280;14852;51.910;8.878;2022-12-07T12:03:47;99490.94;;;7.88;64.82
26823;BME280;14852;51.910;8.878;2022-12-07T12:06:15;99485.75;;;7.88;65.06
26823;BME280;14852;51.910;8.878;2022-12-07T12:17:40;99476.72;;;8.16;64.61
26823;BME280;14852;51.910;8.878;2022-12-07T12:23:06;99473.84;;;8.22;64.24
26823;BME280;14852;51.910;8.878;2022-12-07T12:25:47;99471.97;;;8.25;64.48
26823;BME280;14852;51.910;8.878;2022-12-07T12:28:49;99479.66;;;8.27;64.46
26823;BME280;14852;51.910;8.878;2022-12-07T12:33:51;99470.22;;;8.26;64.54
26823;BME280;14852;51.910;8.878;2022-12-07T12:39:17;99469.59;;;8.40;64.23
26823;BME280;14852;51.910;8.878;2022-12-07T12:51:50;99459.69;;;8.48;64.10
26823;BME280;14852;51.910;8.878;2022-12-07T12:54:23;99447.53;;;8.50;64.29
26823;BME280;14852;51.910;8.878;2022-12-07T12:57:29;99462.06;;;8.52;63.93
26823;BME280;14852;51.910;8.878;2022-12-07T13:02:37;99449.28;;;8.49;63.67
26823;BME280;14852;51.910;8.878;2022-12-07T13:13:01;99453.31;;;8.19;63.85
26823;BME280;14852;51.910;8.878;2022-12-07T13:15:51;99452.59;;;8.15;64.29
26823;BME280;14852;51.910;8.878;2022-12-07T13:29:21;99446.06;;;8.25;63.79
26823;BME280;14852;51.910;8.878;2022-12-07T13:31:55;99447.97;;;8.22;63.96
26823;BME280;14852;51.910;8.878;2022-12-07T13:34:35;99443.88;;;8.18;63.91
26823;BME280;14852;51.910;8.878;2022-12-07T13:42:34;99443.44;;;8.08;64.45
26823;BME280;14852;51.910;8.878;2022-12-07T13:45:21;99433.91;;;8.09;64.37
26823;BME280;14852;51.910;8.878;2022-12-07T13:48:15;99438.34;;;8.07;64.25
26823;BME280;14852;51.910;8.878;2022-12-07T13:50:42;99427.38;;;8.02;64.01
26823;BME280;14852;51.910;8.878;2022-12-07T13:53:13;99429.06;;;8.03;64.16
26823;BME280;14852;51.910;8.878;2022-12-07T13:55:45;99429.13;;;8.01;64.01
26823;BME280;14852;51.910;8.878;2022-12-07T13:58:11;99425.81;;;7.97;64.12
26823;BME280;14852;51.910;8.878;2022-12-07T14:00:39;99426.84;;;7.95;64.29
26823;BME280;14852;51.910;8.878;2022-12-07T14:05:40;99419.16;;;7.93;64.18
26823;BME280;14852;51.910;8.878;2022-12-07T14:10:55;99420.75;;;7.96;64.25
26823;BME280;14852;51.910;8.878;2022-12-07T14:13:34;99418.16;;;7.96;64.23
26823;BME280;14852;51.910;8.878;2022-12-07T14:16:02;99422.63;;;7.92;64.09
26823;BME280;14852;51.910;8.878;2022-12-07T14:18:40;99425.28;;;7.91;64.04
26823;BME280;14852;51.910;8.878;2022-12-07T14:23:35;99428.91;;;7.87;63.95
26823;BME280;14852;51.910;8.878;2022-12-07T14:26:13;99419.34;;;7.89;63.80
26823;BME280;14852;51.910;8.878;2022-12-07T14:28:40;99416.16;;;7.84;63.99
26823;BME280;14852;51.910;8.878;2022-12-07T14:33:39;99420.28;;;7.69;64.31
26823;BME280;14852;51.910;8.878;2022-12-07T14:36:07;99410.13;;;7.64;64.32
26823;BME280;14852;51.910;8.878;2022-12-07T14:38:34;99416.44;;;7.59;64.04
26823;BME280;14852;51.910;8.878;2022-12-07T14:40:59;99412.38;;;7.53;64.19
26823;BME280;14852;51.910;8.878;2022-12-07T14:43:46;99411.75;;;7.48;64.67
26823;BME280;14852;51.910;8.878;2022-12-07T14:46:12;99408.53;;;7.43;64.67
26823;BME280;14852;51.910;8.878;2022-12-07T14:48:37;99407.91;;;7.38;64.64
26823;BME280;14852;51.910;8.878;2022-12-07T14:51:04;99410.75;;;7.32;64.44
26823;BME280;14852;51.910;8.878;2022-12-07T14:53:36;99414.47;;;7.26;64.75
26823;BME280;14852;51.910;8.878;2022-12-07T14:56:03;99413.94;;;7.18;64.63
26823;BME280;14852;51.910;8.878;2022-12-07T14:58:31;99411.59;;;7.14;64.82
26823;BME280;14852;51.910;8.878;2022-12-07T15:00:58;99414.34;;;7.09;64.93
26823;BME280;14852;51.910;8.878;2022-12-07T15:03:24;99408.63;;;7.03;65.04
26823;BME280;14852;51.910;8.878;2022-12-07T15:05:50;99408.69;;;7.01;65.08
26823;BME280;14852;51.910;8.878;2022-12-07T15:08:16;99412.25;;;6.99;65.00
26823;BME280;14852;51.910;8.878;2022-12-07T15:10:42;99406.28;;;6.97;65.00
26823;BME280;14852;51.910;8.878;2022-12-07T15:13:08;99397.63;;;6.98;65.10
26823;BME280;14852;51.910;8.878;2022-12-07T15:15:54;99396.75;;;6.99;65.16
26823;BME280;14852;51.910;8.878;2022-12-07T15:18:22;99402.75;;;6.99;64.77
26823;BME280;14852;51.910;8.878;2022-12-07T15:20:49;99409.84;;;6.94;64.86
26823;BME280;14852;51.910;8.878;2022-12-07T15:23:15;99406.50;;;6.92;64.63
26823;BME280;14852;51.910;8.878;2022-12-07T15:25:42;99404.81;;;6.91;64.89
26823;BME280;14852;51.910;8.878;2022-12-07T15:28:08;99403.28;;;6.87;64.91
26823;BME280;14852;51.910;8.878;2022-12-07T15:30:36;99405.06;;;6.85;64.90
26823;BME280;14852;51.910;8.878;2022-12-07T15:33:02;99406.09;;;6.81;65.10
26823;BME280;14852;51.910;8.878;2022-12-07T15:35:28;99402.78;;;6.79;65.15
26823;BME280;14852;51.910;8.878;2022-12-07T15:37:54;99406.31;;;6.76;65.40
26823;BME280;14852;51.910;8.878;2022-12-07T15:40:19;99400.25;;;6.77;65.26